Allensville, PA

6:33 AM EDT on April 21, 2015 (GMT -0400)
big valley | | Change Station
CLOSE
Current Station
Personal Weather Station
Location: Belleville, PA
Elevation: 873 ft
Nearby Weather Stations

Elev 873 ft 40.62 °N, 77.71 °W | Updated 14 minutes ago

Overcast
Overcast
48.0 °F
Feels Like 47 °F
N
3.7
Wind Variable Wind from West

Today
High -- | Low -- °F
--% Chance of Precip.
Yesterday
High -- | Low -- °F
Precip. -- in
6:23 AM 7:56 PM
Waxing Crescent, 9% visible
Pressure 29.68 in
Visibility 10.0 miles
Clouds Scattered Clouds 6500 ft
Mostly Cloudy 9500 ft
Mostly Cloudy 12000 ft
Windchill 47 °F
Dew Point 35 °F
Humidity 61%
Rainfall 0.18 in
Snow Depth Not available.
UV 0 out of 12
Pollen 1.50 out of 12
Air Quality Not available.
Flu Activity Sporadic
METAR KUNV 210953Z 27010KT 10SM SCT065 BKN095 BKN120 08/01 A2968

More Conditions Fewer Conditions

Pressure 29.68 in
Visibility 10.0 miles
Clouds Scattered Clouds 6500 ft
Mostly Cloudy 9500 ft
Mostly Cloudy 12000 ft
Windchill 47 °F
Dew Point 35 °F
Humidity 61%
Rainfall 0.18 in
Snow Depth Not available.
UV 0 out of 12
Pollen 1.50 out of 12
Air Quality Not available.
Flu Activity Sporadic
METAR KUNV 210953Z 27010KT 10SM SCT065 BKN095 BKN120 08/01 A2968

More Conditions Fewer Conditions

Nowcast | as of 6:08 am EDT on April 21, 2015

Isolated light rain showers will linger across the region through 7 am.

×

10-Day Weather Forecast

Almanac

Astronomy

Apr. 21, 2015 Rise Set
Actual Time
Civil Twilight
Nautical Twilight
Astronomical Twilight
Moon
Length of Visible Light
Length of Day
Tomorrow will be .
, % of the Moon is Illuminated

Today's Extremes

State Highs State Lows

Community

WunderPhotos

Upload Photos

1,815,340 photos uploaded!

WunderBlogs® & News

Nearby

Air Quality

  Air Quality AQ Index Pollutant
Not available.

Snow Depth

Station Depth Elevation

Earthquake Activity

City Distance Mag. Time & Date
Minimum magnitude displayed is 2.5.

Coastal Water Temperatures

Place Temperature

Stations

Nearby Weather Stations

Station Location Temp. Windchill Dew Point Humidity Wind Precip. Elev Updated Type